Kezdőlap
METAR-TAF:

METAR-TAF

Repülőterek :

Fort Riley, Kansas, Amerikai Egyesült Államok

földrajzi szélesség: 39-06N, földrajzi hosszúság: 096-46W, magasság: 325 m

Jelenlegi meteorológiai megfigyelések

A jelentés 46 perccel ezelõtt készült, 19:55 UTC
Nyugat-északnyugati szél 7 kt
Hőmérséklet 25°C
Páratartalom 61%
Légköri nyomás 1004 hPa
Látótávolság: 16.1 km
Kevés felhő 14000 lábon

METAR: KFRI 261955Z AUTO 29007KT 10SM FEW140 25/17 A2965 RMK AO2 SLP032 T02460166 PNO $

Idő: 15:41 (20:41 UTC)


TAF: hiányzik

Meteorológiai megfigyelések és előrejelzések több, mint 4000 repülőtéren (METAR és TAF jelentéseket).

A térképen piros és sárga pontok jelzik az elérhető meteorológiai állomásokat.

Mozgassa az egeret a pont fölött, hogy megjelenjen az állomás neve.

Azután kattintson az időjárási megfigyelések és előrejelzések megtekintéséhez.

A térkép megváltoztatása: kattintson a fekete keresztel jelölt zöld gombra ráközelítéshez, a vonallal jelölt zöld gombra távolításhoz, vagy a zöld nyilakra a szomszédos térképek eléréséhez.


METAR-TAF: